sensor_id;sensor_type;location;lat;lon;timestamp;pressure;altitude;pressure_sealevel;temperature;humidity
49102;BME280;34913;47.520;19.186;2022-07-12T00:00:45;100295.91;;;13.83;66.57
49102;BME280;34913;47.520;19.186;2022-07-12T00:03:10;100288.84;;;13.82;66.11
49102;BME280;34913;47.520;19.186;2022-07-12T00:05:36;100292.22;;;13.64;66.50
49102;BME280;34913;47.520;19.186;2022-07-12T00:08:02;100284.91;;;13.57;66.03
49102;BME280;34913;47.520;19.186;2022-07-12T00:10:27;100285.75;;;13.57;66.63
49102;BME280;34913;47.520;19.186;2022-07-12T00:12:53;100279.03;;;13.53;66.19
49102;BME280;34913;47.520;19.186;2022-07-12T00:15:19;100272.97;;;13.41;67.26
49102;BME280;34913;47.520;19.186;2022-07-12T00:17:44;100281.25;;;13.48;64.81
49102;BME280;34913;47.520;19.186;2022-07-12T00:20:10;100278.72;;;13.37;66.75
49102;BME280;34913;47.520;19.186;2022-07-12T00:22:35;100278.59;;;13.48;65.39
49102;BME280;34913;47.520;19.186;2022-07-12T00:25:00;100280.72;;;13.64;63.85
49102;BME280;34913;47.520;19.186;2022-07-12T00:27:26;100276.22;;;13.64;64.80
49102;BME280;34913;47.520;19.186;2022-07-12T00:29:53;100278.19;;;13.62;63.71
49102;BME280;34913;47.520;19.186;2022-07-12T00:32:18;100276.38;;;13.63;63.90
49102;BME280;34913;47.520;19.186;2022-07-12T00:34:44;100287.88;;;13.63;63.16
49102;BME280;34913;47.520;19.186;2022-07-12T00:37:09;100286.34;;;13.71;63.21
49102;BME280;34913;47.520;19.186;2022-07-12T00:39:34;100287.47;;;13.68;63.85
49102;BME280;34913;47.520;19.186;2022-07-12T00:42:00;100284.81;;;13.68;64.47
49102;BME280;34913;47.520;19.186;2022-07-12T00:44:25;100287.19;;;13.61;64.43
49102;BME280;34913;47.520;19.186;2022-07-12T00:46:51;100288.16;;;13.70;64.45
49102;BME280;34913;47.520;19.186;2022-07-12T00:49:17;100299.97;;;13.77;64.72
49102;BME280;34913;47.520;19.186;2022-07-12T00:51:43;100295.34;;;13.69;64.50
49102;BME280;34913;47.520;19.186;2022-07-12T00:54:08;100289.41;;;13.66;64.78
49102;BME280;34913;47.520;19.186;2022-07-12T00:56:34;100287.59;;;13.66;64.51
49102;BME280;34913;47.520;19.186;2022-07-12T00:59:00;100294.91;;;13.74;65.12
49102;BME280;34913;47.520;19.186;2022-07-12T01:01:25;100296.03;;;13.72;64.60
49102;BME280;34913;47.520;19.186;2022-07-12T01:03:51;100296.88;;;13.72;65.11
49102;BME280;34913;47.520;19.186;2022-07-12T01:06:17;100285.50;;;13.60;64.74
49102;BME280;34913;47.520;19.186;2022-07-12T01:08:43;100283.53;;;13.53;64.98
49102;BME280;34913;47.520;19.186;2022-07-12T01:11:09;100293.31;;;13.43;65.62
49102;BME280;34913;47.520;19.186;2022-07-12T01:13:34;100295.56;;;13.28;65.35
49102;BME280;34913;47.520;19.186;2022-07-12T01:16:00;100304.22;;;13.20;65.96
49102;BME280;34913;47.520;19.186;2022-07-12T01:18:26;100291.31;;;13.25;66.05
49102;BME280;34913;47.520;19.186;2022-07-12T01:20:52;100286.81;;;13.26;66.41
49102;BME280;34913;47.520;19.186;2022-07-12T01:23:18;100294.56;;;13.29;66.59
49102;BME280;34913;47.520;19.186;2022-07-12T01:25:43;100286.97;;;13.24;66.49
49102;BME280;34913;47.520;19.186;2022-07-12T01:28:08;100283.19;;;13.27;67.37
49102;BME280;34913;47.520;19.186;2022-07-12T01:30:33;100285.00;;;13.26;65.70
49102;BME280;34913;47.520;19.186;2022-07-12T01:32:59;100284.75;;;13.29;67.31
49102;BME280;34913;47.520;19.186;2022-07-12T01:35:25;100282.16;;;13.18;67.73
49102;BME280;34913;47.520;19.186;2022-07-12T01:37:50;100287.75;;;13.15;68.07
49102;BME280;34913;47.520;19.186;2022-07-12T01:40:16;100279.63;;;13.17;67.81
49102;BME280;34913;47.520;19.186;2022-07-12T01:42:41;100277.50;;;13.10;67.96
49102;BME280;34913;47.520;19.186;2022-07-12T01:45:09;100283.94;;;13.08;68.12
49102;BME280;34913;47.520;19.186;2022-07-12T01:47:34;100280.81;;;12.93;68.57
49102;BME280;34913;47.520;19.186;2022-07-12T01:50:00;100266.50;;;12.94;68.41
49102;BME280;34913;47.520;19.186;2022-07-12T01:52:25;100271.59;;;12.97;69.42
49102;BME280;34913;47.520;19.186;2022-07-12T01:54:51;100274.13;;;12.99;69.36
49102;BME280;34913;47.520;19.186;2022-07-12T01:57:18;100277.59;;;12.90;69.55
49102;BME280;34913;47.520;19.186;2022-07-12T01:59:44;100273.31;;;12.77;68.92
49102;BME280;34913;47.520;19.186;2022-07-12T02:02:09;100273.06;;;12.80;69.29
49102;BME280;34913;47.520;19.186;2022-07-12T02:04:35;100272.16;;;12.70;69.58
49102;BME280;34913;47.520;19.186;2022-07-12T02:07:00;100275.06;;;12.57;70.70
49102;BME280;34913;47.520;19.186;2022-07-12T02:09:25;100273.25;;;12.58;69.92
49102;BME280;34913;47.520;19.186;2022-07-12T02:11:51;100276.63;;;12.60;70.74
49102;BME280;34913;47.520;19.186;2022-07-12T02:14:16;100276.34;;;12.63;69.71
49102;BME280;34913;47.520;19.186;2022-07-12T02:16:42;100270.75;;;12.66;69.74
49102;BME280;34913;47.520;19.186;2022-07-12T02:19:08;100273.94;;;12.60;69.70
49102;BME280;34913;47.520;19.186;2022-07-12T02:21:33;100274.66;;;12.62;69.70
49102;BME280;34913;47.520;19.186;2022-07-12T02:23:59;100275.25;;;12.66;69.09
49102;BME280;34913;47.520;19.186;2022-07-12T02:26:24;100278.75;;;12.66;68.17
49102;BME280;34913;47.520;19.186;2022-07-12T02:28:50;100280.06;;;12.72;67.92
49102;BME280;34913;47.520;19.186;2022-07-12T02:31:15;100274.47;;;12.84;67.70
49102;BME280;34913;47.520;19.186;2022-07-12T02:33:40;100277.59;;;12.90;67.43
49102;BME280;34913;47.520;19.186;2022-07-12T02:36:06;100278.16;;;12.93;67.44
49102;BME280;34913;47.520;19.186;2022-07-12T02:38:31;100273.28;;;12.98;67.21
49102;BME280;34913;47.520;19.186;2022-07-12T02:40:56;100275.94;;;12.98;67.54
49102;BME280;34913;47.520;19.186;2022-07-12T02:43:26;100280.25;;;12.90;67.76
49102;BME280;34913;47.520;19.186;2022-07-12T02:45:52;100279.56;;;12.88;68.10
49102;BME280;34913;47.520;19.186;2022-07-12T02:48:18;100281.31;;;12.77;68.12
49102;BME280;34913;47.520;19.186;2022-07-12T02:50:43;100281.56;;;12.65;68.91
49102;BME280;34913;47.520;19.186;2022-07-12T02:53:09;100280.59;;;12.45;69.95
49102;BME280;34913;47.520;19.186;2022-07-12T02:55:34;100286.56;;;12.37;70.30
49102;BME280;34913;47.520;19.186;2022-07-12T02:58:00;100283.88;;;12.27;70.69
49102;BME280;34913;47.520;19.186;2022-07-12T03:00:26;100277.25;;;12.22;71.03
49102;BME280;34913;47.520;19.186;2022-07-12T03:02:52;100287.44;;;12.17;71.43
49102;BME280;34913;47.520;19.186;2022-07-12T03:05:17;100290.34;;;12.14;70.78
49102;BME280;34913;47.520;19.186;2022-07-12T03:07:42;100288.28;;;12.17;70.67
49102;BME280;34913;47.520;19.186;2022-07-12T03:10:08;100294.88;;;12.23;71.02
49102;BME280;34913;47.520;19.186;2022-07-12T03:12:33;100288.22;;;12.28;70.63
49102;BME280;34913;47.520;19.186;2022-07-12T03:14:59;100293.16;;;12.33;70.69
49102;BME280;34913;47.520;19.186;2022-07-12T03:17:24;100289.25;;;12.37;71.11
49102;BME280;34913;47.520;19.186;2022-07-12T03:19:49;100296.09;;;12.40;69.92
49102;BME280;34913;47.520;19.186;2022-07-12T03:22:15;100298.53;;;12.43;70.24
49102;BME280;34913;47.520;19.186;2022-07-12T03:24:40;100297.16;;;12.48;70.39
49102;BME280;34913;47.520;19.186;2022-07-12T03:27:05;100298.44;;;12.54;70.00
49102;BME280;34913;47.520;19.186;2022-07-12T03:29:31;100292.22;;;12.65;69.30
49102;BME280;34913;47.520;19.186;2022-07-12T03:31:56;100294.31;;;12.71;69.34
49102;BME280;34913;47.520;19.186;2022-07-12T03:34:22;100302.31;;;12.71;69.27
49102;BME280;34913;47.520;19.186;2022-07-12T03:36:47;100297.25;;;12.68;69.85
49102;BME280;34913;47.520;19.186;2022-07-12T03:39:12;100310.72;;;12.66;69.37
49102;BME280;34913;47.520;19.186;2022-07-12T03:41:37;100303.56;;;12.67;69.61
49102;BME280;34913;47.520;19.186;2022-07-12T03:44:03;100305.56;;;12.74;69.07
49102;BME280;34913;47.520;19.186;2022-07-12T03:46:28;100305.75;;;12.82;68.43
49102;BME280;34913;47.520;19.186;2022-07-12T03:48:54;100305.06;;;12.90;69.64
49102;BME280;34913;47.520;19.186;2022-07-12T03:51:19;100311.41;;;12.99;68.91
49102;BME280;34913;47.520;19.186;2022-07-12T03:53:44;100313.97;;;13.10;68.30
49102;BME280;34913;47.520;19.186;2022-07-12T03:56:10;100311.38;;;13.20;68.87
49102;BME280;34913;47.520;19.186;2022-07-12T03:58:55;100302.13;;;13.33;68.12
49102;BME280;34913;47.520;19.186;2022-07-12T04:01:20;100312.41;;;13.38;67.83
49102;BME280;34913;47.520;19.186;2022-07-12T04:03:45;100309.91;;;13.56;67.04
49102;BME280;34913;47.520;19.186;2022-07-12T04:06:10;100311.91;;;13.83;66.56
49102;BME280;34913;47.520;19.186;2022-07-12T04:08:36;100311.47;;;14.16;65.13
49102;BME280;34913;47.520;19.186;2022-07-12T04:11:01;100312.00;;;14.49;64.18
49102;BME280;34913;47.520;19.186;2022-07-12T04:13:26;100312.78;;;14.78;62.64
49102;BME280;34913;47.520;19.186;2022-07-12T04:15:52;100306.59;;;15.05;63.96
49102;BME280;34913;47.520;19.186;2022-07-12T04:18:17;100303.78;;;15.34;60.84
49102;BME280;34913;47.520;19.186;2022-07-12T04:20:42;100305.16;;;15.66;61.03
49102;BME280;34913;47.520;19.186;2022-07-12T04:23:07;100302.16;;;15.87;60.28
49102;BME280;34913;47.520;19.186;2022-07-12T04:25:34;100318.16;;;16.14;57.49
49102;BME280;34913;47.520;19.186;2022-07-12T04:27:59;100316.56;;;16.47;57.18
49102;BME280;34913;47.520;19.186;2022-07-12T04:30:25;100319.34;;;16.64;56.19
49102;BME280;34913;47.520;19.186;2022-07-12T04:32:54;100315.16;;;16.87;55.42
49102;BME280;34913;47.520;19.186;2022-07-12T04:35:19;100314.81;;;17.16;55.97
49102;BME280;34913;47.520;19.186;2022-07-12T04:37:44;100306.66;;;17.42;55.33
49102;BME280;34913;47.520;19.186;2022-07-12T04:40:10;100312.31;;;17.73;54.20
49102;BME280;34913;47.520;19.186;2022-07-12T04:42:35;100312.34;;;17.90;53.96
49102;BME280;34913;47.520;19.186;2022-07-12T04:45:01;100304.63;;;18.03;52.23
49102;BME280;34913;47.520;19.186;2022-07-12T04:47:26;100308.16;;;18.20;52.07
49102;BME280;34913;47.520;19.186;2022-07-12T04:49:51;100302.59;;;18.21;50.79
49102;BME280;34913;47.520;19.186;2022-07-12T04:52:16;100316.03;;;18.37;51.43
49102;BME280;34913;47.520;19.186;2022-07-12T04:54:42;100310.13;;;18.58;51.05
49102;BME280;34913;47.520;19.186;2022-07-12T04:57:07;100313.00;;;18.57;50.72
49102;BME280;34913;47.520;19.186;2022-07-12T04:59:32;100301.88;;;18.84;49.42
49102;BME280;34913;47.520;19.186;2022-07-12T05:01:57;100312.72;;;19.07;49.17
49102;BME280;34913;47.520;19.186;2022-07-12T05:04:23;100306.59;;;19.21;49.13
49102;BME280;34913;47.520;19.186;2022-07-12T05:06:48;100311.88;;;19.46;47.91
49102;BME280;34913;47.520;19.186;2022-07-12T05:09:13;100311.94;;;19.69;47.85
49102;BME280;34913;47.520;19.186;2022-07-12T05:11:39;100310.81;;;19.86;47.17
49102;BME280;34913;47.520;19.186;2022-07-12T05:14:04;100306.91;;;19.89;46.60
49102;BME280;34913;47.520;19.186;2022-07-12T05:16:30;100309.72;;;20.18;46.94
49102;BME280;34913;47.520;19.186;2022-07-12T05:18:56;100305.59;;;20.07;47.01
49102;BME280;34913;47.520;19.186;2022-07-12T05:21:21;100311.31;;;20.27;47.14
49102;BME280;34913;47.520;19.186;2022-07-12T05:23:46;100312.88;;;20.45;46.17
49102;BME280;34913;47.520;19.186;2022-07-12T05:26:12;100313.38;;;20.48;45.29
49102;BME280;34913;47.520;19.186;2022-07-12T05:28:37;100308.00;;;20.78;44.76
49102;BME280;34913;47.520;19.186;2022-07-12T05:31:02;100309.47;;;20.66;45.42
49102;BME280;34913;47.520;19.186;2022-07-12T05:33:27;100312.28;;;20.87;45.72
49102;BME280;34913;47.520;19.186;2022-07-12T05:35:53;100322.41;;;21.00;44.85
49102;BME280;34913;47.520;19.186;2022-07-12T05:38:19;100319.53;;;21.01;43.33
49102;BME280;34913;47.520;19.186;2022-07-12T05:40:44;100323.06;;;21.16;42.59
49102;BME280;34913;47.520;19.186;2022-07-12T05:43:09;100327.63;;;21.16;43.31
49102;BME280;34913;47.520;19.186;2022-07-12T05:45:35;100326.50;;;21.25;42.84
49102;BME280;34913;47.520;19.186;2022-07-12T05:48:00;100328.28;;;21.18;42.62
49102;BME280;34913;47.520;19.186;2022-07-12T05:50:25;100320.72;;;21.58;42.39
49102;BME280;34913;47.520;19.186;2022-07-12T05:52:51;100321.13;;;21.76;42.24
49102;BME280;34913;47.520;19.186;2022-07-12T05:55:34;100325.00;;;22.10;41.15
49102;BME280;34913;47.520;19.186;2022-07-12T05:58:00;100317.81;;;22.17;40.54
49102;BME280;34913;47.520;19.186;2022-07-12T06:00:25;100325.97;;;22.23;41.61
49102;BME280;34913;47.520;19.186;2022-07-12T06:02:50;100328.53;;;22.53;40.17
49102;BME280;34913;47.520;19.186;2022-07-12T06:05:16;100323.78;;;22.62;40.89
49102;BME280;34913;47.520;19.186;2022-07-12T06:07:41;100323.25;;;22.73;41.79
49102;BME280;34913;47.520;19.186;2022-07-12T06:10:06;100320.09;;;22.69;40.60
49102;BME280;34913;47.520;19.186;2022-07-12T06:12:32;100319.50;;;22.74;39.35
49102;BME280;34913;47.520;19.186;2022-07-12T06:14:57;100321.16;;;23.03;39.71
49102;BME280;34913;47.520;19.186;2022-07-12T06:17:22;100321.91;;;22.62;40.11
49102;BME280;34913;47.520;19.186;2022-07-12T06:19:49;100319.63;;;22.87;39.99
49102;BME280;34913;47.520;19.186;2022-07-12T06:22:14;100317.88;;;23.14;39.47
49102;BME280;34913;47.520;19.186;2022-07-12T06:24:39;100318.22;;;23.39;39.02
49102;BME280;34913;47.520;19.186;2022-07-12T06:27:04;100316.59;;;23.51;39.78
49102;BME280;34913;47.520;19.186;2022-07-12T06:29:30;100307.72;;;23.77;38.53
49102;BME280;34913;47.520;19.186;2022-07-12T06:31:55;100309.03;;;23.88;38.18
49102;BME280;34913;47.520;19.186;2022-07-12T06:34:20;100317.19;;;24.14;37.70
49102;BME280;34913;47.520;19.186;2022-07-12T06:36:46;100324.13;;;24.37;38.15
49102;BME280;34913;47.520;19.186;2022-07-12T06:39:12;100319.94;;;24.34;38.76
49102;BME280;34913;47.520;19.186;2022-07-12T06:41:37;100314.88;;;23.98;38.68
49102;BME280;34913;47.520;19.186;2022-07-12T06:44:02;100319.88;;;23.94;37.55
49102;BME280;34913;47.520;19.186;2022-07-12T06:46:28;100313.88;;;24.26;38.52
49102;BME280;34913;47.520;19.186;2022-07-12T06:48:53;100324.94;;;24.37;36.99
49102;BME280;34913;47.520;19.186;2022-07-12T06:51:18;100314.69;;;24.72;38.65
49102;BME280;34913;47.520;19.186;2022-07-12T06:53:43;100316.69;;;25.17;36.25
49102;BME280;34913;47.520;19.186;2022-07-12T06:56:09;100317.28;;;25.25;34.78
49102;BME280;34913;47.520;19.186;2022-07-12T06:58:34;100322.31;;;25.28;36.02
49102;BME280;34913;47.520;19.186;2022-07-12T07:00:59;100318.94;;;25.26;35.70
49102;BME280;34913;47.520;19.186;2022-07-12T07:03:24;100314.78;;;25.30;35.13
49102;BME280;34913;47.520;19.186;2022-07-12T07:05:50;100310.56;;;25.79;35.11
49102;BME280;34913;47.520;19.186;2022-07-12T07:08:15;100318.19;;;25.57;34.20
49102;BME280;34913;47.520;19.186;2022-07-12T07:10:40;100310.69;;;25.59;33.64
49102;BME280;34913;47.520;19.186;2022-07-12T07:13:07;100315.91;;;25.54;33.50
49102;BME280;34913;47.520;19.186;2022-07-12T07:15:32;100311.28;;;25.61;35.66
49102;BME280;34913;47.520;19.186;2022-07-12T07:17:58;100315.63;;;25.76;33.73
49102;BME280;34913;47.520;19.186;2022-07-12T07:20:23;100318.28;;;25.82;32.79
49102;BME280;34913;47.520;19.186;2022-07-12T07:22:49;100315.63;;;25.76;33.63
49102;BME280;34913;47.520;19.186;2022-07-12T07:25:14;100313.84;;;25.95;34.62
49102;BME280;34913;47.520;19.186;2022-07-12T07:27:41;100320.31;;;25.94;33.22
49102;BME280;34913;47.520;19.186;2022-07-12T07:30:06;100316.75;;;26.00;32.80
49102;BME280;34913;47.520;19.186;2022-07-12T07:32:50;100315.41;;;26.09;33.50
49102;BME280;34913;47.520;19.186;2022-07-12T07:35:15;100310.47;;;26.24;33.39
49102;BME280;34913;47.520;19.186;2022-07-12T07:37:41;100313.25;;;25.86;32.95
49102;BME280;34913;47.520;19.186;2022-07-12T07:40:07;100323.16;;;26.05;33.11
49102;BME280;34913;47.520;19.186;2022-07-12T07:42:32;100318.56;;;26.06;33.53
49102;BME280;34913;47.520;19.186;2022-07-12T07:44:57;100317.53;;;26.07;33.40
49102;BME280;34913;47.520;19.186;2022-07-12T07:47:23;100312.38;;;26.24;33.65
49102;BME280;34913;47.520;19.186;2022-07-12T07:49:48;100312.22;;;26.43;31.79
49102;BME280;34913;47.520;19.186;2022-07-12T07:52:13;100303.63;;;26.47;32.47
49102;BME280;34913;47.520;19.186;2022-07-12T07:54:39;100307.09;;;26.54;33.66
49102;BME280;34913;47.520;19.186;2022-07-12T07:57:04;100305.16;;;26.61;32.16
49102;BME280;34913;47.520;19.186;2022-07-12T07:59:30;100309.44;;;26.50;31.79
49102;BME280;34913;47.520;19.186;2022-07-12T08:01:55;100319.28;;;26.51;31.62
49102;BME280;34913;47.520;19.186;2022-07-12T08:04:21;100310.81;;;26.34;31.93
49102;BME280;34913;47.520;19.186;2022-07-12T08:06:46;100308.31;;;26.33;32.07
49102;BME280;34913;47.520;19.186;2022-07-12T08:09:12;100316.78;;;26.50;32.06
49102;BME280;34913;47.520;19.186;2022-07-12T08:11:38;100315.63;;;26.82;32.19
49102;BME280;34913;47.520;19.186;2022-07-12T08:14:03;100313.91;;;26.88;31.65
49102;BME280;34913;47.520;19.186;2022-07-12T08:16:29;100305.56;;;27.01;31.58
49102;BME280;34913;47.520;19.186;2022-07-12T08:18:55;100300.56;;;26.30;32.17
49102;BME280;34913;47.520;19.186;2022-07-12T08:21:20;100297.47;;;26.26;32.64
49102;BME280;34913;47.520;19.186;2022-07-12T08:23:46;100303.78;;;25.95;32.75
49102;BME280;34913;47.520;19.186;2022-07-12T08:26:11;100297.75;;;26.18;33.47
49102;BME280;34913;47.520;19.186;2022-07-12T08:28:38;100311.03;;;26.39;31.91
49102;BME280;34913;47.520;19.186;2022-07-12T08:31:03;100309.16;;;26.33;31.80
49102;BME280;34913;47.520;19.186;2022-07-12T08:33:29;100306.19;;;26.10;32.82
49102;BME280;34913;47.520;19.186;2022-07-12T08:35:54;100312.97;;;26.01;33.10
49102;BME280;34913;47.520;19.186;2022-07-12T08:38:19;100300.44;;;26.25;31.82
49102;BME280;34913;47.520;19.186;2022-07-12T08:40:45;100299.88;;;25.84;31.87
49102;BME280;34913;47.520;19.186;2022-07-12T08:43:10;100303.53;;;26.28;31.64
49102;BME280;34913;47.520;19.186;2022-07-12T08:45:36;100301.13;;;25.44;31.35
49102;BME280;34913;47.520;19.186;2022-07-12T08:48:01;100297.50;;;24.98;34.38
49102;BME280;34913;47.520;19.186;2022-07-12T08:50:26;100284.78;;;25.50;31.64
49102;BME280;34913;47.520;19.186;2022-07-12T08:52:53;100275.88;;;25.75;32.21
49102;BME280;34913;47.520;19.186;2022-07-12T08:55:26;100290.66;;;26.17;31.76
49102;BME280;34913;47.520;19.186;2022-07-12T08:57:52;100285.72;;;26.57;31.62
49102;BME280;34913;47.520;19.186;2022-07-12T09:00:18;100295.22;;;26.23;33.13
49102;BME280;34913;47.520;19.186;2022-07-12T09:05:13;100294.13;;;26.74;31.55
49102;BME280;34913;47.520;19.186;2022-07-12T09:07:39;100289.00;;;26.41;29.88
49102;BME280;34913;47.520;19.186;2022-07-12T09:10:07;100292.13;;;26.13;32.64
49102;BME280;34913;47.520;19.186;2022-07-12T09:12:33;100298.31;;;26.27;30.94
49102;BME280;34913;47.520;19.186;2022-07-12T09:17:37;100298.66;;;26.62;32.03
49102;BME280;34913;47.520;19.186;2022-07-12T09:20:03;100300.16;;;26.58;31.32
49102;BME280;34913;47.520;19.186;2022-07-12T09:22:28;100294.59;;;26.71;31.72
49102;BME280;34913;47.520;19.186;2022-07-12T09:24:53;100283.09;;;26.87;30.85
49102;BME280;34913;47.520;19.186;2022-07-12T09:27:24;100285.59;;;26.89;30.87
49102;BME280;34913;47.520;19.186;2022-07-12T09:29:50;100289.91;;;26.03;31.41
49102;BME280;34913;47.520;19.186;2022-07-12T09:32:16;100286.56;;;25.76;31.86
49102;BME280;34913;47.520;19.186;2022-07-12T09:35:00;100277.16;;;26.04;31.86
49102;BME280;34913;47.520;19.186;2022-07-12T09:37:44;100286.59;;;26.51;30.12
49102;BME280;34913;47.520;19.186;2022-07-12T09:40:09;100287.50;;;26.88;30.17
49102;BME280;34913;47.520;19.186;2022-07-12T09:42:35;100279.28;;;26.70;30.91
49102;BME280;34913;47.520;19.186;2022-07-12T09:45:01;100279.81;;;27.04;29.59
49102;BME280;34913;47.520;19.186;2022-07-12T09:47:26;100288.50;;;27.12;29.27
49102;BME280;34913;47.520;19.186;2022-07-12T09:49:52;100291.53;;;27.04;30.09
49102;BME280;34913;47.520;19.186;2022-07-12T09:52:26;100285.84;;;27.24;29.67
49102;BME280;34913;47.520;19.186;2022-07-12T09:54:53;100270.78;;;27.21;29.44
49102;BME280;34913;47.520;19.186;2022-07-12T09:57:20;100289.31;;;27.31;29.90
49102;BME280;34913;47.520;19.186;2022-07-12T09:59:46;100274.31;;;26.67;30.99
49102;BME280;34913;47.520;19.186;2022-07-12T10:02:13;100266.91;;;26.92;29.83
49102;BME280;34913;47.520;19.186;2022-07-12T10:04:41;100269.78;;;26.97;29.72
49102;BME280;34913;47.520;19.186;2022-07-12T10:07:06;100261.56;;;27.04;29.87
49102;BME280;34913;47.520;19.186;2022-07-12T10:09:32;100258.94;;;26.54;29.90
49102;BME280;34913;47.520;19.186;2022-07-12T10:11:58;100262.72;;;26.03;31.00
49102;BME280;34913;47.520;19.186;2022-07-12T10:14:23;100254.88;;;26.63;30.75
49102;BME280;34913;47.520;19.186;2022-07-12T10:16:52;100254.59;;;27.08;29.52
49102;BME280;34913;47.520;19.186;2022-07-12T10:19:24;100243.25;;;27.11;29.44
49102;BME280;34913;47.520;19.186;2022-07-12T10:21:51;100251.78;;;26.78;29.75
49102;BME280;34913;47.520;19.186;2022-07-12T10:27:02;100250.47;;;26.37;30.04
49102;BME280;34913;47.520;19.186;2022-07-12T10:29:49;100256.75;;;25.88;30.73
49102;BME280;34913;47.520;19.186;2022-07-12T10:35:05;100265.59;;;25.45;32.64
49102;BME280;34913;47.520;19.186;2022-07-12T10:37:31;100259.53;;;25.81;32.18
49102;BME280;34913;47.520;19.186;2022-07-12T10:42:37;100249.94;;;26.04;31.24
49102;BME280;34913;47.520;19.186;2022-07-12T10:45:13;100253.59;;;25.59;30.95
49102;BME280;34913;47.520;19.186;2022-07-12T10:47:57;100260.19;;;25.39;31.81
49102;BME280;34913;47.520;19.186;2022-07-12T11:00:57;100239.09;;;25.66;32.42
49102;BME280;34913;47.520;19.186;2022-07-12T11:03:22;100236.91;;;25.87;31.98
49102;BME280;34913;47.520;19.186;2022-07-12T11:05:48;100242.00;;;26.02;32.07
49102;BME280;34913;47.520;19.186;2022-07-12T11:08:14;100236.16;;;25.74;30.30
49102;BME280;34913;47.520;19.186;2022-07-12T11:10:39;100246.84;;;25.69;33.15
49102;BME280;34913;47.520;19.186;2022-07-12T11:13:19;100263.94;;;25.38;35.28
49102;BME280;34913;47.520;19.186;2022-07-12T11:15:54;100256.34;;;24.95;34.29
49102;BME280;34913;47.520;19.186;2022-07-12T11:18:29;100258.78;;;24.38;37.31
49102;BME280;34913;47.520;19.186;2022-07-12T11:20:58;100248.75;;;24.12;36.88
49102;BME280;34913;47.520;19.186;2022-07-12T11:23:24;100248.53;;;24.01;38.78
49102;BME280;34913;47.520;19.186;2022-07-12T11:25:50;100251.91;;;24.03;36.19
49102;BME280;34913;47.520;19.186;2022-07-12T11:28:15;100241.88;;;24.43;35.03
49102;BME280;34913;47.520;19.186;2022-07-12T11:30:47;100245.31;;;24.90;36.08
49102;BME280;34913;47.520;19.186;2022-07-12T11:33:13;100243.16;;;25.12;33.91
49102;BME280;34913;47.520;19.186;2022-07-12T11:35:38;100236.34;;;25.41;33.82
49102;BME280;34913;47.520;19.186;2022-07-12T11:38:04;100230.06;;;25.78;31.86
49102;BME280;34913;47.520;19.186;2022-07-12T11:40:29;100246.44;;;25.97;31.78
49102;BME280;34913;47.520;19.186;2022-07-12T11:42:56;100232.50;;;25.86;31.60
49102;BME280;34913;47.520;19.186;2022-07-12T11:45:23;100231.34;;;26.01;33.54
49102;BME280;34913;47.520;19.186;2022-07-12T11:47:49;100237.06;;;25.93;31.90
49102;BME280;34913;47.520;19.186;2022-07-12T11:50:16;100234.16;;;25.87;32.77
49102;BME280;34913;47.520;19.186;2022-07-12T11:52:42;100240.16;;;25.65;32.03
49102;BME280;34913;47.520;19.186;2022-07-12T11:55:08;100243.19;;;25.50;32.96
49102;BME280;34913;47.520;19.186;2022-07-12T11:57:33;100236.13;;;25.36;31.93
49102;BME280;34913;47.520;19.186;2022-07-12T12:00:11;100234.09;;;25.31;31.64
49102;BME280;34913;47.520;19.186;2022-07-12T12:02:37;100228.78;;;25.81;31.43
49102;BME280;34913;47.520;19.186;2022-07-12T12:05:02;100220.31;;;25.96;30.37
49102;BME280;34913;47.520;19.186;2022-07-12T12:07:29;100213.13;;;25.45;30.25
49102;BME280;34913;47.520;19.186;2022-07-12T12:10:05;100216.88;;;25.05;30.83
49102;BME280;34913;47.520;19.186;2022-07-12T12:12:38;100217.50;;;25.08;30.46
49102;BME280;34913;47.520;19.186;2022-07-12T12:15:04;100221.38;;;25.25;31.37
49102;BME280;34913;47.520;19.186;2022-07-12T12:17:30;100209.38;;;25.77;29.49
49102;BME280;34913;47.520;19.186;2022-07-12T12:19:55;100207.81;;;26.13;32.03
49102;BME280;34913;47.520;19.186;2022-07-12T12:22:33;100204.19;;;26.44;29.42
49102;BME280;34913;47.520;19.186;2022-07-12T12:25:02;100201.91;;;26.78;29.56
49102;BME280;34913;47.520;19.186;2022-07-12T12:27:28;100212.06;;;26.89;27.20
49102;BME280;34913;47.520;19.186;2022-07-12T12:29:57;100205.84;;;26.82;27.22
49102;BME280;34913;47.520;19.186;2022-07-12T12:32:23;100210.91;;;26.60;26.88
49102;BME280;34913;47.520;19.186;2022-07-12T12:35:04;100208.22;;;25.92;27.54
49102;BME280;34913;47.520;19.186;2022-07-12T12:37:30;100201.84;;;25.41;28.77
49102;BME280;34913;47.520;19.186;2022-07-12T12:39:56;100211.25;;;24.87;28.53
49102;BME280;34913;47.520;19.186;2022-07-12T12:42:24;100211.22;;;25.00;28.17
49102;BME280;34913;47.520;19.186;2022-07-12T12:44:50;100207.66;;;25.00;27.72
49102;BME280;34913;47.520;19.186;2022-07-12T12:47:15;100213.03;;;25.20;28.75
49102;BME280;34913;47.520;19.186;2022-07-12T12:49:56;100208.22;;;25.22;28.17
49102;BME280;34913;47.520;19.186;2022-07-12T12:52:22;100207.28;;;25.41;28.28
49102;BME280;34913;47.520;19.186;2022-07-12T12:54:48;100203.25;;;25.50;28.17
49102;BME280;34913;47.520;19.186;2022-07-12T12:57:13;100203.97;;;25.32;28.19
49102;BME280;34913;47.520;19.186;2022-07-12T12:59:38;100203.97;;;25.32;28.05